Time;durP1;ratioP1;P1;durP2;ratioP2;P2;SDS_P1;SDS_P2;PMS_P1;PMS_P2;Temp;Humidity;BMP_temperature;BMP_pressure;BME280_temperature;BME280_humidity;BME280_pressure;Samples;Min_cycle;Max_cycle;Signal;HPM_P1;HPM_P2
2024/01/29 00:01:47;;;;;;;8.57;5.63;;;4.70;1.00;;;;;;5058348;28;20807;-69
2024/01/29 00:04:13;;;;;;;12.67;5.07;;;4.70;1.00;;;;;;5075205;28;20830;-68
2024/01/29 00:06:38;;;;;;;7.90;5.07;;;4.70;1.00;;;;;;5076106;28;20258;-68
2024/01/29 00:09:05;;;;;;;16.43;6.00;;;4.60;1.00;;;;;;5058398;28;20177;-68
2024/01/29 00:11:33;;;;;;;7.53;5.20;;;4.70;1.00;;;;;;5076213;28;20193;-68
2024/01/29 00:14:00;;;;;;;6.23;5.10;;;4.70;1.00;;;;;;5075034;28;20883;-76
2024/01/29 00:16:26;;;;;;;8.93;4.97;;;4.70;1.00;;;;;;5076040;28;20494;-69
2024/01/29 00:18:51;;;;;;;7.60;5.60;;;4.70;1.00;;;;;;5076085;28;20923;-76
2024/01/29 00:21:17;;;;;;;4.93;4.53;;;4.70;1.00;;;;;;5075927;28;20217;-75
2024/01/29 00:23:43;;;;;;;4.90;4.40;;;4.70;1.00;;;;;;5074959;28;20247;-76
2024/01/29 00:26:08;;;;;;;9.03;4.97;;;4.80;1.00;;;;;;5057898;28;20208;-76
2024/01/29 00:28:34;;;;;;;5.17;4.77;;;4.80;1.00;;;;;;5075835;28;20629;-76
2024/01/29 00:31:00;;;;;;;5.80;5.30;;;4.80;1.00;;;;;;5075734;28;20165;-69
2024/01/29 00:33:25;;;;;;;5.97;4.53;;;4.80;1.00;;;;;;5074861;28;20170;-68
2024/01/29 00:35:51;;;;;;;7.93;4.67;;;4.80;1.00;;;;;;5075557;28;20675;-76
2024/01/29 00:38:17;;;;;;;6.43;5.67;;;4.90;1.00;;;;;;5075544;28;20224;-76
2024/01/29 00:40:42;;;;;;;6.80;4.70;;;4.80;1.00;;;;;;5075554;28;20166;-69
2024/01/29 00:43:08;;;;;;;5.77;4.70;;;4.90;1.00;;;;;;5056637;28;20275;-76
2024/01/29 00:45:34;;;;;;;11.10;4.80;;;4.90;1.00;;;;;;5075359;28;20193;-76
2024/01/29 00:47:59;;;;;;;4.73;4.33;;;4.90;1.00;;;;;;5075357;28;20158;-76
2024/01/29 00:50:25;;;;;;;5.03;4.53;;;4.90;1.00;;;;;;5075334;28;20175;-77
2024/01/29 00:52:51;;;;;;;6.00;4.80;;;4.80;1.00;;;;;;5074431;28;20212;-69
2024/01/29 00:55:16;;;;;;;5.47;5.07;;;4.90;1.00;;;;;;5075255;28;20641;-76
2024/01/29 00:57:42;;;;;;;7.40;4.70;;;4.80;1.00;;;;;;5075352;28;20169;-69
2024/01/29 01:00:09;;;;;;;8.60;6.03;;;4.80;1.00;;;;;;5075199;28;20668;-76
2024/01/29 01:02:35;;;;;;;8.27;5.33;;;4.90;1.00;;;;;;5075132;28;20404;-68
2024/01/29 01:05:01;;;;;;;5.23;4.73;;;4.80;1.00;;;;;;5074080;28;20438;-69
2024/01/29 01:07:27;;;;;;;5.90;5.37;;;4.90;1.00;;;;;;5074939;28;20427;-68
2024/01/29 01:09:53;;;;;;;8.40;5.37;;;4.90;1.00;;;;;;5075020;28;20388;-76
2024/01/29 01:12:19;;;;;;;5.80;4.73;;;4.90;1.00;;;;;;5074888;28;20403;-69
2024/01/29 01:14:44;;;;;;;6.80;4.57;;;4.90;1.00;;;;;;5073964;28;20224;-68
2024/01/29 01:17:10;;;;;;;12.20;5.17;;;5.00;1.00;;;;;;5057219;28;20181;-76
2024/01/29 01:19:36;;;;;;;5.17;4.77;;;4.90;1.00;;;;;;5056959;28;20573;-68
2024/01/29 01:22:01;;;;;;;9.30;5.07;;;4.90;1.00;;;;;;5074747;28;20206;-68
2024/01/29 01:24:27;;;;;;;5.30;4.80;;;4.90;1.00;;;;;;5073661;28;20186;-69
2024/01/29 01:26:53;;;;;;;10.27;4.93;;;4.90;1.00;;;;;;5074569;28;20201;-69
2024/01/29 01:29:18;;;;;;;4.60;4.30;;;4.90;1.00;;;;;;5074607;28;20166;-73
2024/01/29 01:31:44;;;;;;;7.17;4.90;;;4.90;1.00;;;;;;5074640;28;20163;-76
2024/01/29 01:34:10;;;;;;;6.40;5.10;;;4.90;1.00;;;;;;5073575;28;20195;-76
2024/01/29 01:36:35;;;;;;;8.93;5.13;;;4.90;1.00;;;;;;5056652;28;20185;-69
2024/01/29 01:39:01;;;;;;;5.27;4.70;;;4.90;1.00;;;;;;5074371;28;20637;-68
2024/01/29 01:41:27;;;;;;;5.47;4.40;;;4.90;1.00;;;;;;5056722;28;20181;-69
2024/01/29 01:43:52;;;;;;;4.97;4.53;;;4.90;1.00;;;;;;5073351;28;20158;-76
2024/01/29 01:46:23;;;;;;;6.87;5.10;;;4.80;1.00;;;;;;5056438;28;20285;-76
2024/01/29 01:48:51;;;;;;;7.40;5.47;;;4.80;1.00;;;;;;5074095;28;20169;-75
2024/01/29 01:51:18;;;;;;;5.87;5.20;;;4.80;1.00;;;;;;5074170;28;20389;-77
2024/01/29 01:53:45;;;;;;;5.50;5.00;;;4.80;1.00;;;;;;5073280;28;20495;-68
2024/01/29 01:56:11;;;;;;;6.87;5.70;;;4.80;1.00;;;;;;5074014;28;20424;-68
2024/01/29 01:58:40;;;;;;;5.40;4.40;;;4.70;1.00;;;;;;5073991;28;20408;-76
2024/01/29 02:01:06;;;;;;;8.63;4.67;;;4.70;1.00;;;;;;5073973;28;20420;-76
2024/01/29 02:03:32;;;;;;;5.13;4.40;;;4.70;1.00;;;;;;5073006;28;20415;-76
2024/01/29 02:05:58;;;;;;;5.60;5.03;;;4.80;1.00;;;;;;5055315;28;20692;-68
2024/01/29 02:08:24;;;;;;;6.63;4.30;;;4.80;1.00;;;;;;5073908;28;20401;-68
2024/01/29 02:10:50;;;;;;;4.80;4.37;;;4.80;1.00;;;;;;5056172;28;20511;-75
2024/01/29 02:13:16;;;;;;;4.87;4.10;;;4.80;1.00;;;;;;5055287;28;20390;-76
2024/01/29 02:15:42;;;;;;;6.30;5.53;;;4.80;1.00;;;;;;5073710;28;20427;-70
2024/01/29 02:18:08;;;;;;;4.77;4.07;;;4.80;1.00;;;;;;5055741;28;20182;-69
2024/01/29 02:20:34;;;;;;;5.23;4.30;;;4.80;1.00;;;;;;5056104;28;20565;-76
2024/01/29 02:23:00;;;;;;;6.90;4.50;;;4.80;1.00;;;;;;5072698;28;20162;-75
2024/01/29 02:25:26;;;;;;;4.03;3.83;;;4.80;1.00;;;;;;5073259;28;20429;-76
2024/01/29 02:27:51;;;;;;;10.20;4.77;;;4.70;1.00;;;;;;5073530;28;20455;-69
2024/01/29 02:30:17;;;;;;;5.07;3.87;;;4.70;1.00;;;;;;5055277;28;20182;-68
2024/01/29 02:32:43;;;;;;;4.90;4.40;;;4.70;1.00;;;;;;5073333;28;20176;-76
2024/01/29 02:35:09;;;;;;;4.70;3.97;;;4.70;1.00;;;;;;5072575;28;20186;-68
2024/01/29 02:37:35;;;;;;;5.47;5.00;;;4.70;1.00;;;;;;5055736;28;20415;-76
2024/01/29 02:40:01;;;;;;;4.83;4.13;;;4.70;1.00;;;;;;5073422;28;20174;-68
2024/01/29 02:42:26;;;;;;;3.90;3.60;;;4.60;1.00;;;;;;5073440;28;20561;-68
2024/01/29 02:44:52;;;;;;;6.07;4.33;;;4.60;1.00;;;;;;5072418;28;20734;-76
2024/01/29 02:47:18;;;;;;;4.70;4.40;;;4.60;1.00;;;;;;5073206;28;20294;-75
2024/01/29 02:49:44;;;;;;;6.37;3.73;;;4.60;1.00;;;;;;5073383;28;20171;-68
2024/01/29 02:52:10;;;;;;;3.60;3.30;;;4.50;1.00;;;;;;5073395;28;20173;-76
2024/01/29 02:54:36;;;;;;;3.83;3.57;;;4.50;1.00;;;;;;5072366;28;20422;-76
2024/01/29 02:57:03;;;;;;;4.80;3.93;;;4.50;1.00;;;;;;5073190;28;20454;-69
2024/01/29 02:59:29;;;;;;;4.83;4.33;;;4.40;1.00;;;;;;5073138;28;20404;-76
2024/01/29 03:01:55;;;;;;;5.60;4.57;;;4.50;1.00;;;;;;5055486;28;20450;-75
2024/01/29 03:04:21;;;;;;;5.70;3.93;;;4.40;1.00;;;;;;5054566;28;20205;-68
2024/01/29 03:06:47;;;;;;;6.60;4.83;;;4.50;1.00;;;;;;5073015;28;20952;-68
2024/01/29 03:09:14;;;;;;;6.77;4.33;;;4.50;1.00;;;;;;5073040;28;20649;-73
2024/01/29 03:11:43;;;;;;;4.07;3.77;;;4.40;1.00;;;;;;5073045;28;20408;-69
2024/01/29 03:14:08;;;;;;;9.57;4.50;;;4.40;1.00;;;;;;5054446;28;20857;-68
2024/01/29 03:16:34;;;;;;;4.70;4.30;;;4.40;1.00;;;;;;5056186;28;20447;-68
2024/01/29 03:19:00;;;;;;;5.53;4.50;;;4.30;1.00;;;;;;5077140;28;20169;-76
2024/01/29 03:21:29;;;;;;;5.03;3.70;;;4.30;1.00;;;;;;5076979;28;20421;-75
2024/01/29 03:23:55;;;;;;;5.40;4.17;;;4.30;1.00;;;;;;5076101;28;20225;-76
2024/01/29 03:26:21;;;;;;;3.90;3.60;;;4.40;1.00;;;;;;5076977;28;20808;-74
2024/01/29 03:28:47;;;;;;;6.33;5.67;;;4.40;1.00;;;;;;5076935;28;20396;-68
2024/01/29 03:31:13;;;;;;;3.60;3.40;;;4.50;1.00;;;;;;5076899;28;20392;-69
2024/01/29 03:33:39;;;;;;;4.00;3.70;;;4.50;1.00;;;;;;5075855;28;20166;-68
2024/01/29 03:36:06;;;;;;;4.10;3.70;;;4.50;1.00;;;;;;5076695;28;20650;-68
2024/01/29 03:38:32;;;;;;;3.70;3.40;;;4.60;1.00;;;;;;5076696;28;20198;-76
2024/01/29 03:40:58;;;;;;;4.63;3.37;;;4.60;1.00;;;;;;5076673;28;20449;-76
2024/01/29 03:43:24;;;;;;;4.40;4.03;;;4.60;1.00;;;;;;5075654;28;20870;-69
2024/01/29 03:45:51;;;;;;;4.20;3.80;;;4.60;1.00;;;;;;5076352;28;20536;-76
2024/01/29 03:48:17;;;;;;;4.50;4.10;;;4.60;1.00;;;;;;5076605;28;20442;-68
2024/01/29 03:50:43;;;;;;;3.67;3.37;;;4.60;1.00;;;;;;5058550;28;20508;-69
2024/01/29 03:53:09;;;;;;;5.40;4.70;;;4.60;1.00;;;;;;5075547;28;20165;-68
2024/01/29 03:55:35;;;;;;;4.07;3.50;;;4.60;1.00;;;;;;5076281;28;20746;-76
2024/01/29 03:58:01;;;;;;;3.87;3.50;;;4.50;1.00;;;;;;5058675;28;20220;-75
2024/01/29 04:00:27;;;;;;;4.60;3.90;;;4.50;1.00;;;;;;5058618;28;20408;-69
2024/01/29 04:02:53;;;;;;;4.00;3.70;;;4.50;1.00;;;;;;5075398;28;20155;-68
2024/01/29 04:05:19;;;;;;;3.77;3.47;;;4.50;1.00;;;;;;5076127;28;20772;-76
2024/01/29 04:07:45;;;;;;;6.00;3.33;;;4.50;1.00;;;;;;5076085;28;20452;-68
2024/01/29 04:10:11;;;;;;;5.03;4.50;;;4.50;1.00;;;;;;5076161;28;20389;-76
2024/01/29 04:12:36;;;;;;;5.40;5.00;;;4.50;1.00;;;;;;5076071;28;20799;-68
2024/01/29 04:15:03;;;;;;;4.00;3.50;;;4.60;1.00;;;;;;5075128;28;20189;-76
2024/01/29 04:17:28;;;;;;;3.83;3.53;;;4.60;1.00;;;;;;5076019;28;20563;-69
2024/01/29 04:19:54;;;;;;;4.20;3.90;;;4.60;1.00;;;;;;5075924;28;20410;-76
2024/01/29 04:22:20;;;;;;;6.73;3.47;;;4.50;1.00;;;;;;5076003;28;20163;-76
2024/01/29 04:24:46;;;;;;;5.50;4.40;;;4.50;1.00;;;;;;5056982;28;20711;-69
2024/01/29 04:27:11;;;;;;;3.90;3.40;;;4.50;1.00;;;;;;5075338;28;20304;-76
2024/01/29 04:29:38;;;;;;;7.33;4.30;;;4.50;1.00;;;;;;5075819;28;20169;-68
2024/01/29 04:32:04;;;;;;;6.43;4.10;;;4.50;1.00;;;;;;5075701;28;20224;-76
2024/01/29 04:34:30;;;;;;;6.60;3.90;;;4.50;1.00;;;;;;5057044;28;20431;-68
2024/01/29 04:36:55;;;;;;;3.80;3.53;;;4.50;1.00;;;;;;5075710;28;20408;-68
2024/01/29 04:39:21;;;;;;;5.20;4.00;;;4.60;1.00;;;;;;5075651;28;20185;-68
2024/01/29 04:41:46;;;;;;;14.03;3.60;;;4.60;1.00;;;;;;5075580;28;20300;-69
2024/01/29 04:44:14;;;;;;;3.50;3.07;;;4.60;1.00;;;;;;5074499;28;20217;-69
2024/01/29 04:46:40;;;;;;;7.57;3.53;;;4.60;1.00;;;;;;5075415;28;20288;-76
2024/01/29 04:49:06;;;;;;;3.70;3.40;;;4.60;1.00;;;;;;5075460;28;20479;-68
2024/01/29 04:51:31;;;;;;;4.20;3.90;;;4.60;1.00;;;;;;5057360;28;20626;-68
2024/01/29 04:53:57;;;;;;;3.93;3.63;;;4.70;1.00;;;;;;5074396;28;20162;-76
2024/01/29 04:56:23;;;;;;;3.87;3.47;;;4.70;1.00;;;;;;5075185;28;20169;-68
2024/01/29 04:58:48;;;;;;;4.53;3.53;;;4.80;1.00;;;;;;5075283;28;20171;-75
2024/01/29 05:01:14;;;;;;;3.87;3.57;;;4.80;1.00;;;;;;5075325;28;20173;-76
2024/01/29 05:03:40;;;;;;;4.80;4.40;;;4.90;1.00;;;;;;5056535;28;20209;-76
2024/01/29 05:06:06;;;;;;;3.23;3.03;;;4.90;1.00;;;;;;5074845;28;20198;-68
2024/01/29 05:08:31;;;;;;;8.50;5.00;;;4.90;1.00;;;;;;5075010;28;20553;-76
2024/01/29 05:10:57;;;;;;;9.10;3.47;;;5.00;1.00;;;;;;5075074;28;20195;-72
2024/01/29 05:13:23;;;;;;;5.43;3.90;;;5.00;1.00;;;;;;5056448;28;20223;-76
2024/01/29 05:15:48;;;;;;;6.10;3.53;;;4.90;1.00;;;;;;5074874;28;20242;-76
2024/01/29 05:18:14;;;;;;;3.80;3.43;;;4.90;1.00;;;;;;5074826;28;20161;-75
2024/01/29 05:20:40;;;;;;;4.00;3.70;;;4.90;1.00;;;;;;5074774;28;20230;-68
2024/01/29 05:23:06;;;;;;;9.50;3.80;;;4.90;1.00;;;;;;5073900;28;20162;-68
2024/01/29 05:25:32;;;;;;;5.20;4.23;;;4.90;1.00;;;;;;5074570;28;20194;-76
2024/01/29 05:27:57;;;;;;;7.67;3.73;;;4.90;1.00;;;;;;5074638;28;20475;-68
2024/01/29 05:30:24;;;;;;;3.20;3.00;;;4.90;1.00;;;;;;5074542;28;20439;-69
2024/01/29 05:32:49;;;;;;;3.13;2.93;;;4.90;1.00;;;;;;5073766;28;20197;-74
2024/01/29 05:35:15;;;;;;;4.27;3.60;;;4.80;1.00;;;;;;5074499;28;20455;-68
2024/01/29 05:37:41;;;;;;;5.73;3.70;;;4.90;1.00;;;;;;5074448;28;20176;-68
2024/01/29 05:40:11;;;;;;;5.73;3.50;;;4.90;1.00;;;;;;5055903;28;20412;-71
2024/01/29 05:42:37;;;;;;;4.60;3.67;;;4.80;1.00;;;;;;5074292;28;20165;-69
2024/01/29 05:45:03;;;;;;;6.80;3.50;;;4.80;1.00;;;;;;5073349;28;20424;-77
2024/01/29 05:47:29;;;;;;;4.00;3.70;;;4.80;1.00;;;;;;5074260;28;20456;-69
2024/01/29 05:49:54;;;;;;;4.10;3.70;;;4.80;1.00;;;;;;5074284;28;20402;-68
2024/01/29 05:52:20;;;;;;;3.83;2.70;;;4.80;1.00;;;;;;5055489;28;20882;-75
2024/01/29 05:54:46;;;;;;;6.60;4.00;;;4.80;1.00;;;;;;5073015;28;20198;-75
2024/01/29 05:57:12;;;;;;;3.90;3.60;;;4.80;1.00;;;;;;5074139;28;20176;-69
2024/01/29 05:59:41;;;;;;;3.80;3.50;;;4.70;1.00;;;;;;5073992;28;20173;-69
2024/01/29 06:02:07;;;;;;;4.70;3.90;;;4.70;1.00;;;;;;5074027;28;20942;-69
2024/01/29 06:04:33;;;;;;;5.80;4.03;;;4.70;1.00;;;;;;5072935;28;20789;-76
2024/01/29 06:06:59;;;;;;;3.83;3.53;;;4.70;1.00;;;;;;5073648;28;20468;-75
2024/01/29 06:09:25;;;;;;;3.93;3.63;;;4.60;1.00;;;;;;5073819;28;20415;-75
2024/01/29 06:11:53;;;;;;;4.70;3.50;;;4.60;1.00;;;;;;5073841;28;20785;-70
2024/01/29 06:14:19;;;;;;;4.03;3.70;;;4.60;1.00;;;;;;5072891;28;20237;-75
2024/01/29 06:16:45;;;;;;;4.77;3.40;;;4.60;1.00;;;;;;5073751;28;21005;-69
2024/01/29 06:19:15;;;;;;;3.63;3.33;;;4.60;1.00;;;;;;5073744;28;20415;-69
2024/01/29 06:21:43;;;;;;;6.10;4.10;;;4.60;1.00;;;;;;5073705;28;20184;-69
2024/01/29 06:24:08;;;;;;;4.23;3.83;;;4.60;1.00;;;;;;5072812;28;20458;-75
2024/01/29 06:26:35;;;;;;;4.47;4.07;;;4.60;1.00;;;;;;5073525;28;20459;-76
2024/01/29 06:29:00;;;;;;;3.30;3.10;;;4.60;1.00;;;;;;5073491;28;20189;-69
2024/01/29 06:31:26;;;;;;;5.00;3.73;;;4.60;1.00;;;;;;5073596;28;20396;-68
2024/01/29 06:33:55;;;;;;;5.63;3.80;;;4.60;1.00;;;;;;5072684;28;20180;-75
2024/01/29 06:36:21;;;;;;;4.00;3.70;;;4.60;1.00;;;;;;5073463;28;20166;-69
2024/01/29 06:38:47;;;;;;;4.20;3.80;;;4.50;1.00;;;;;;5073332;28;20397;-69
2024/01/29 06:41:24;;;;;;;5.50;5.00;;;4.50;1.00;;;;;;5073280;28;20417;-69
2024/01/29 06:43:50;;;;;;;4.10;3.80;;;4.50;1.00;;;;;;5072436;28;20523;-69
2024/01/29 06:46:16;;;;;;;4.03;3.60;;;4.40;1.00;;;;;;5078317;28;20452;-71
2024/01/29 06:48:42;;;;;;;5.20;3.67;;;4.40;1.00;;;;;;5093474;28;20443;-77
2024/01/29 06:51:08;;;;;;;5.00;3.60;;;4.40;1.00;;;;;;5093194;28;20469;-76
2024/01/29 06:53:35;;;;;;;3.73;3.40;;;4.40;1.00;;;;;;5074721;28;20696;-68
2024/01/29 06:56:02;;;;;;;4.87;4.47;;;4.30;1.00;;;;;;5093388;28;20453;-76
2024/01/29 06:58:29;;;;;;;3.87;3.57;;;4.30;1.00;;;;;;5093431;28;20926;-69
2024/01/29 07:00:54;;;;;;;3.77;3.57;;;4.30;1.00;;;;;;5093460;28;20497;-69
2024/01/29 07:03:21;;;;;;;4.63;4.23;;;4.30;1.00;;;;;;5092368;28;20560;-68
2024/01/29 07:05:49;;;;;;;4.07;3.70;;;4.30;1.00;;;;;;5093128;28;20205;-76
2024/01/29 07:08:18;;;;;;;4.00;3.67;;;4.30;1.00;;;;;;5075204;28;20886;-76
2024/01/29 07:10:44;;;;;;;4.70;3.73;;;4.20;1.00;;;;;;5093369;28;20450;-69
2024/01/29 07:13:10;;;;;;;4.13;3.73;;;4.20;1.00;;;;;;5092407;28;20418;-75
2024/01/29 07:15:36;;;;;;;5.97;3.50;;;4.20;1.00;;;;;;5093259;28;20422;-76
2024/01/29 07:18:02;;;;;;;7.20;3.77;;;4.20;1.00;;;;;;5093213;28;20259;-69
2024/01/29 07:20:29;;;;;;;11.43;4.30;;;4.10;1.00;;;;;;5093393;28;20166;-69
2024/01/29 07:22:56;;;;;;;4.40;4.00;;;4.00;1.00;;;;;;5092329;28;20456;-77
2024/01/29 07:25:22;;;;;;;4.93;3.97;;;4.00;1.00;;;;;;5074909;28;20511;-73
2024/01/29 07:27:48;;;;;;;5.40;5.00;;;4.00;1.00;;;;;;5093126;28;20542;-68
2024/01/29 07:30:14;;;;;;;4.40;3.40;;;3.90;1.00;;;;;;5075021;28;20928;-76
2024/01/29 07:32:40;;;;;;;4.43;3.87;;;3.90;1.00;;;;;;5092876;28;20816;-71
2024/01/29 07:35:06;;;;;;;3.90;3.60;;;3.90;1.00;;;;;;5092298;28;20934;-77
2024/01/29 07:37:32;;;;;;;3.90;3.57;;;3.90;1.00;;;;;;5093013;28;20416;-71
2024/01/29 07:39:58;;;;;;;3.87;3.57;;;3.90;1.00;;;;;;5093066;28;20976;-76
2024/01/29 07:42:24;;;;;;;4.30;3.83;;;3.90;1.00;;;;;;5093090;28;20170;-76
2024/01/29 07:44:51;;;;;;;4.30;4.00;;;3.90;1.00;;;;;;5092079;28;20189;-68
2024/01/29 07:47:17;;;;;;;4.07;3.70;;;4.00;1.00;;;;;;5092840;28;20479;-75
2024/01/29 07:49:42;;;;;;;3.60;3.37;;;4.00;1.00;;;;;;5092840;28;20396;-76
2024/01/29 07:52:09;;;;;;;5.73;4.07;;;4.00;1.00;;;;;;5075106;28;20518;-69
2024/01/29 07:54:35;;;;;;;6.57;3.60;;;4.00;1.00;;;;;;5092034;28;20185;-77
2024/01/29 07:57:01;;;;;;;7.90;4.93;;;4.00;1.00;;;;;;5092942;28;20806;-77
2024/01/29 07:59:27;;;;;;;3.50;3.30;;;4.00;1.00;;;;;;5092756;28;20410;-71
2024/01/29 08:01:53;;;;;;;6.00;4.10;;;4.10;1.00;;;;;;5074707;28;20418;-69
2024/01/29 08:04:18;;;;;;;3.60;3.40;;;4.10;1.00;;;;;;5077534;28;20754;-77
2024/01/29 08:06:44;;;;;;;3.90;3.60;;;4.10;1.00;;;;;;5096374;28;20561;-68
2024/01/29 08:09:10;;;;;;;6.00;4.43;;;4.10;1.00;;;;;;5096477;28;20176;-70
2024/01/29 08:11:37;;;;;;;5.47;3.60;;;4.10;1.00;;;;;;5096412;28;20222;-77
2024/01/29 08:14:03;;;;;;;8.10;3.87;;;4.10;1.00;;;;;;5095451;28;20571;-69
2024/01/29 08:16:28;;;;;;;5.03;4.53;;;4.10;1.00;;;;;;5096338;28;20402;-78
2024/01/29 08:18:55;;;;;;;4.27;3.97;;;4.20;1.00;;;;;;5096290;28;20406;-77
2024/01/29 08:21:20;;;;;;;3.53;3.20;;;4.20;1.00;;;;;;5095977;28;20182;-68
2024/01/29 08:23:46;;;;;;;4.00;3.60;;;4.30;1.00;;;;;;5095228;28;20407;-77
2024/01/29 08:26:12;;;;;;;3.60;3.40;;;4.30;1.00;;;;;;5096105;28;20204;-77
2024/01/29 08:28:38;;;;;;;3.70;3.20;;;4.40;1.00;;;;;;5096072;28;20804;-69
2024/01/29 08:31:05;;;;;;;8.23;4.17;;;4.40;1.00;;;;;;5096076;28;20226;-77
2024/01/29 08:33:31;;;;;;;4.40;4.00;;;4.50;1.00;;;;;;5095098;28;20618;-77
2024/01/29 08:35:56;;;;;;;5.90;4.20;;;4.50;1.00;;;;;;5095818;28;20449;-72
2024/01/29 08:38:22;;;;;;;4.10;3.80;;;4.50;1.00;;;;;;5095992;28;20189;-69
2024/01/29 08:40:49;;;;;;;9.23;4.20;;;4.60;1.00;;;;;;5095810;28;20193;-69
2024/01/29 08:43:15;;;;;;;4.00;3.70;;;4.70;1.00;;;;;;5094925;28;20956;-77
2024/01/29 08:45:41;;;;;;;9.93;4.10;;;4.80;1.00;;;;;;5095711;28;20510;-76
2024/01/29 08:48:07;;;;;;;4.00;3.67;;;4.90;1.00;;;;;;5077470;28;20232;-77
2024/01/29 08:50:34;;;;;;;4.07;3.73;;;4.90;1.00;;;;;;5095682;28;20528;-69
2024/01/29 08:53:00;;;;;;;7.00;3.93;;;5.00;1.00;;;;;;5094686;28;20161;-77
2024/01/29 08:55:26;;;;;;;6.90;4.40;;;5.10;1.00;;;;;;5095550;28;20784;-68
2024/01/29 08:57:52;;;;;;;5.20;4.43;;;5.10;1.00;;;;;;5095522;28;20400;-78
2024/01/29 09:00:18;;;;;;;4.70;4.30;;;5.20;1.00;;;;;;5095395;28;20178;-69
2024/01/29 09:02:44;;;;;;;4.53;4.13;;;5.30;1.00;;;;;;5095305;28;20407;-68
2024/01/29 09:05:10;;;;;;;7.50;3.90;;;5.40;1.00;;;;;;5094537;28;20310;-69
2024/01/29 09:07:36;;;;;;;3.80;3.50;;;5.50;1.00;;;;;;5095023;28;20460;-77
2024/01/29 09:10:03;;;;;;;6.97;4.23;;;5.50;1.00;;;;;;5095252;28;20892;-69
2024/01/29 09:12:28;;;;;;;8.00;4.17;;;5.60;1.00;;;;;;5095214;28;20243;-78
2024/01/29 09:14:55;;;;;;;3.90;3.50;;;5.60;1.00;;;;;;5092949;28;20428;-68
2024/01/29 09:17:21;;;;;;;4.53;4.13;;;5.70;1.00;;;;;;5094099;28;20181;-69
2024/01/29 09:19:47;;;;;;;6.80;3.50;;;5.70;1.00;;;;;;5095204;28;20414;-69
2024/01/29 09:22:12;;;;;;;4.40;4.00;;;5.80;1.00;;;;;;5094932;28;20214;-74
2024/01/29 09:24:38;;;;;;;3.93;3.37;;;5.90;1.00;;;;;;5075879;28;20451;-72
2024/01/29 09:27:04;;;;;;;4.03;3.63;;;6.00;1.00;;;;;;5094883;28;20193;-68
2024/01/29 09:29:30;;;;;;;7.20;4.30;;;6.10;1.00;;;;;;5094805;28;20585;-69
2024/01/29 09:31:55;;;;;;;4.17;3.80;;;6.20;1.00;;;;;;5094859;28;20400;-69
2024/01/29 09:34:24;;;;;;;7.77;4.13;;;6.20;99.90;;;;;;5093697;28;20706;-77
2024/01/29 09:36:50;;;;;;;5.57;4.60;;;6.30;1.00;;;;;;5094723;28;20516;-76
2024/01/29 09:39:15;;;;;;;5.00;3.53;;;6.50;99.90;;;;;;5076820;28;20408;-69
2024/01/29 09:41:42;;;;;;;9.53;3.90;;;6.60;99.90;;;;;;5094740;28;20173;-76
2024/01/29 09:44:09;;;;;;;6.70;3.70;;;6.60;99.90;;;;;;5093685;28;20545;-77
2024/01/29 09:46:39;;;;;;;4.17;3.80;;;6.70;99.90;;;;;;5094318;28;20486;-70
2024/01/29 09:49:05;;;;;;;3.83;3.50;;;6.80;99.90;;;;;;5094542;28;20431;-69
2024/01/29 09:51:33;;;;;;;3.57;3.33;;;6.90;99.90;;;;;;5076235;28;20408;-69
2024/01/29 09:54:03;;;;;;;7.23;3.20;;;7.00;99.90;;;;;;5075299;28;20419;-69
2024/01/29 09:56:29;;;;;;;5.57;3.60;;;7.00;99.90;;;;;;5094193;28;20403;-70
2024/01/29 09:58:56;;;;;;;4.23;3.83;;;7.20;99.90;;;;;;5076378;28;20820;-68
2024/01/29 10:01:23;;;;;;;4.40;3.40;;;7.30;99.90;;;;;;5094270;28;20412;-77
2024/01/29 10:03:49;;;;;;;4.00;3.67;;;7.40;99.90;;;;;;5093239;28;20776;-70
2024/01/29 10:06:15;;;;;;;5.77;4.40;;;7.40;99.90;;;;;;5094102;28;20881;-68
2024/01/29 10:08:42;;;;;;;5.63;4.40;;;7.40;99.90;;;;;;5094078;28;20417;-72
2024/01/29 10:11:08;;;;;;;3.97;3.60;;;7.40;99.90;;;;;;5094014;28;20869;-78
2024/01/29 10:13:34;;;;;;;5.20;3.87;;;7.40;99.90;;;;;;5093175;28;20370;-70
2024/01/29 10:16:00;;;;;;;7.03;4.20;;;7.50;99.90;;;;;;5093993;28;20391;-69
2024/01/29 10:18:26;;;;;;;4.70;4.30;;;7.50;99.90;;;;;;5093985;28;20733;-69
2024/01/29 10:21:05;;;;;;;9.90;4.83;;;7.40;99.90;;;;;;5093841;28;20891;-77
2024/01/29 10:23:31;;;;;;;7.60;3.93;;;7.50;99.90;;;;;;5092965;28;20166;-76
2024/01/29 10:25:58;;;;;;;4.07;3.67;;;7.50;99.90;;;;;;5093126;28;20423;-76
2024/01/29 10:28:26;;;;;;;4.93;4.07;;;7.50;99.90;;;;;;5093226;28;20474;-68
2024/01/29 10:30:52;;;;;;;6.70;4.40;;;7.60;99.90;;;;;;5093494;28;20415;-77
2024/01/29 10:33:18;;;;;;;9.80;4.20;;;7.60;99.90;;;;;;5092804;28;20903;-77
2024/01/29 10:35:44;;;;;;;8.00;4.20;;;7.70;99.90;;;;;;5093658;28;20519;-74
2024/01/29 10:38:13;;;;;;;5.67;4.80;;;7.70;99.90;;;;;;5093559;28;20184;-69
2024/01/29 10:40:41;;;;;;;6.43;5.50;;;7.80;99.90;;;;;;5093579;28;20174;-77
2024/01/29 10:43:15;;;;;;;5.30;4.60;;;7.80;99.90;;;;;;5092625;28;20484;-77
2024/01/29 10:45:44;;;;;;;5.07;4.67;;;7.90;99.90;;;;;;5075293;28;20518;-74
2024/01/29 10:48:20;;;;;;;7.50;5.10;;;7.90;99.90;;;;;;5093359;28;20455;-76
2024/01/29 10:50:47;;;;;;;7.83;4.90;;;7.90;99.90;;;;;;5093412;28;20802;-70
2024/01/29 10:53:17;;;;;;;4.93;4.53;;;8.00;99.90;;;;;;5092517;28;20403;-78
2024/01/29 10:55:50;;;;;;;6.70;5.20;;;8.10;99.90;;;;;;5093259;28;20432;-69
2024/01/29 10:58:17;;;;;;;7.40;5.00;;;8.20;99.90;;;;;;5093416;28;20880;-78
2024/01/29 11:00:44;;;;;;;5.10;4.73;;;8.30;99.90;;;;;;5093381;28;20406;-78
2024/01/29 11:03:11;;;;;;;5.87;5.37;;;8.30;99.90;;;;;;5092254;28;20377;-78
2024/01/29 11:05:48;;;;;;;5.27;4.53;;;8.40;99.90;;;;;;5093171;28;20766;-77
2024/01/29 11:08:21;;;;;;;6.10;4.63;;;8.40;99.90;;;;;;5093042;28;20775;-78
2024/01/29 11:10:46;;;;;;;5.17;4.67;;;8.60;99.90;;;;;;5093327;28;20405;-69
2024/01/29 11:13:14;;;;;;;5.10;4.63;;;8.70;99.90;;;;;;5092302;28;20457;-78
2024/01/29 11:15:41;;;;;;;5.60;4.37;;;8.80;99.90;;;;;;5093163;28;20184;-78
2024/01/29 11:18:08;;;;;;;5.83;5.27;;;9.00;99.90;;;;;;5093248;28;20461;-78
2024/01/29 11:20:34;;;;;;;5.43;5.03;;;9.20;99.90;;;;;;5093222;28;20462;-79
2024/01/29 11:23:02;;;;;;;4.97;4.30;;;9.60;99.90;;;;;;5074105;28;20803;-72
2024/01/29 11:25:29;;;;;;;5.40;4.90;;;9.80;99.90;;;;;;5092869;28;20189;-73
2024/01/29 11:27:59;;;;;;;5.60;4.70;;;9.70;99.90;;;;;;5093165;28;20582;-78
2024/01/29 11:30:28;;;;;;;5.97;5.17;;;9.50;99.90;;;;;;5092996;28;20377;-78
2024/01/29 11:32:55;;;;;;;9.03;5.30;;;9.30;99.90;;;;;;5092239;28;20843;-79
2024/01/29 11:35:23;;;;;;;5.63;4.63;;;9.20;99.90;;;;;;5092867;28;20750;-70
2024/01/29 11:37:53;;;;;;;5.33;4.83;;;9.20;99.90;;;;;;5094609;28;20498;-71
2024/01/29 11:40:40;;;;;;;6.20;5.37;;;9.20;99.90;;;;;;5097089;28;20381;-77
2024/01/29 11:43:16;;;;;;;7.47;4.93;;;9.30;99.90;;;;;;5096042;28;20932;-70
2024/01/29 11:45:49;;;;;;;5.40;5.00;;;9.40;99.90;;;;;;5096819;28;20453;-78
2024/01/29 11:48:16;;;;;;;9.30;5.10;;;9.50;99.90;;;;;;5078632;28;20445;-77
2024/01/29 11:50:46;;;;;;;4.40;4.10;;;9.70;99.90;;;;;;5096780;28;20380;-73
2024/01/29 11:53:16;;;;;;;5.60;5.10;;;9.80;99.90;;;;;;5095814;28;20374;-79
2024/01/29 11:55:43;;;;;;;5.90;5.03;;;9.80;99.90;;;;;;5096557;28;20412;-70
2024/01/29 11:58:13;;;;;;;6.07;4.50;;;9.70;99.90;;;;;;5096673;28;20399;-77
2024/01/29 12:00:39;;;;;;;5.87;5.07;;;9.60;99.90;;;;;;5096581;28;20381;-78
2024/01/29 12:03:08;;;;;;;6.70;5.10;;;9.50;99.90;;;;;;5095724;28;20370;-69
2024/01/29 12:05:34;;;;;;;8.07;5.10;;;9.40;99.90;;;;;;5096226;28;20455;-79
2024/01/29 12:08:00;;;;;;;5.97;5.37;;;9.40;99.90;;;;;;5096370;28;20425;-75
2024/01/29 12:10:25;;;;;;;6.60;6.00;;;9.40;99.90;;;;;;5096486;28;20194;-78
2024/01/29 12:12:51;;;;;;;9.70;6.33;;;9.40;99.90;;;;;;5095570;28;20522;-72
2024/01/29 12:15:17;;;;;;;6.10;5.60;;;9.40;99.90;;;;;;5096289;28;20276;-78
2024/01/29 12:17:46;;;;;;;6.50;5.90;;;9.40;99.90;;;;;;5078278;28;20184;-72
2024/01/29 12:20:12;;;;;;;5.83;5.30;;;9.40;99.90;;;;;;5096125;28;20626;-78
2024/01/29 12:22:42;;;;;;;6.83;6.10;;;9.30;1.00;;;;;;5096254;28;20378;-70
2024/01/29 12:25:11;;;;;;;11.07;5.93;;;9.30;1.00;;;;;;5095267;28;20406;-78
2024/01/29 12:27:41;;;;;;;9.60;6.57;;;9.40;1.00;;;;;;5095946;28;20513;-69
2024/01/29 12:30:13;;;;;;;5.97;5.27;;;9.50;1.00;;;;;;5096095;28;20403;-69
2024/01/29 12:32:42;;;;;;;11.80;6.40;;;9.50;1.00;;;;;;5077772;28;20887;-74
2024/01/29 12:35:31;;;;;;;10.40;7.13;;;9.50;1.00;;;;;;5095173;28;20419;-78
2024/01/29 12:38:08;;;;;;;10.13;7.30;;;9.60;1.00;;;;;;5095830;28;20940;-77
2024/01/29 12:40:34;;;;;;;12.03;6.10;;;9.60;1.00;;;;;;5095879;28;20381;-72
2024/01/29 12:43:01;;;;;;;9.40;7.40;;;9.60;1.00;;;;;;5094910;28;20403;-69
2024/01/29 12:45:27;;;;;;;7.87;7.10;;;9.70;1.00;;;;;;5095720;28;20394;-69
2024/01/29 12:48:26;;;;;;;6.97;6.00;;;9.60;1.00;;;;;;5095337;28;20455;-78
2024/01/29 12:50:52;;;;;;;12.40;11.07;;;9.70;1.00;;;;;;5076575;28;20395;-70
2024/01/29 12:53:17;;;;;;;7.07;6.37;;;9.80;1.00;;;;;;5094742;28;20491;-69
2024/01/29 12:55:43;;;;;;;7.67;6.80;;;9.80;1.00;;;;;;5077271;28;20839;-76
2024/01/29 12:58:09;;;;;;;7.47;6.13;;;9.80;1.00;;;;;;5095460;28;20182;-79
2024/01/29 13:00:35;;;;;;;6.23;5.70;;;9.80;1.00;;;;;;5077539;28;20184;-79
2024/01/29 13:03:01;;;;;;;7.53;6.50;;;9.80;1.00;;;;;;5094584;28;20162;-69